createdAt,value
2018-01-20T00:00:54.464Z,115.9
2018-01-20T00:01:56.573Z,137.4
2018-01-20T00:02:57.828Z,116.2
2018-01-20T00:03:58.862Z,114.4
2018-01-20T00:04:59.569Z,126.8
2018-01-20T00:06:00.282Z,123.4
2018-01-20T00:07:01.018Z,125.8
2018-01-20T00:08:01.745Z,113.7
2018-01-20T00:09:02.535Z,108.0
2018-01-20T00:10:03.263Z,114.8
2018-01-20T00:11:03.982Z,124.9
2018-01-20T00:12:04.710Z,122.0
2018-01-20T00:13:05.433Z,130.0
2018-01-20T00:14:06.159Z,127.2
2018-01-20T00:15:06.884Z,139.3
2018-01-20T00:16:07.605Z,124.8
2018-01-20T00:17:08.404Z,126.9
2018-01-20T00:18:09.158Z,139.7
2018-01-20T00:19:09.878Z,137.9
2018-01-20T00:20:10.598Z,128.8
2018-01-20T00:21:11.398Z,148.2
2018-01-20T00:22:12.120Z,145.5
2018-01-20T00:23:12.903Z,145.9
2018-01-20T00:24:13.629Z,153.4
2018-01-20T00:25:14.466Z,159.3
2018-01-20T00:26:15.253Z,154.0
2018-01-20T00:27:16.049Z,158.3
2018-01-20T00:28:16.756Z,147.1
2018-01-20T00:29:17.536Z,153.6
2018-01-20T00:30:18.318Z,160.0
2018-01-20T00:31:19.193Z,143.3
2018-01-20T00:32:19.878Z,167.6
2018-01-20T00:33:20.608Z,147.1
2018-01-20T00:34:21.393Z,152.8
2018-01-20T00:35:22.127Z,156.3
2018-01-20T00:36:22.859Z,145.1
2018-01-20T00:37:23.907Z,163.7
2018-01-20T00:38:24.667Z,151.6
2018-01-20T00:39:25.371Z,153.5
2018-01-20T00:40:26.101Z,150.3
2018-01-20T00:41:26.878Z,150.9
2018-01-20T00:42:27.597Z,145.3
2018-01-20T00:43:28.322Z,155.9
2018-01-20T00:44:29.056Z,140.6
2018-01-20T00:45:29.899Z,142.4
2018-01-20T00:46:30.638Z,139.8
2018-01-20T00:47:31.343Z,142.4
2018-01-20T00:48:32.063Z,152.9
2018-01-20T00:49:32.807Z,144.2
2018-01-20T00:50:33.606Z,140.3
2018-01-20T00:51:34.393Z,145.4
2018-01-20T00:52:35.205Z,144.1
2018-01-20T00:53:35.975Z,131.9
2018-01-20T00:54:36.709Z,134.4
2018-01-20T00:55:37.432Z,129.0
2018-01-20T00:56:38.156Z,134.8
2018-01-20T00:57:38.874Z,127.0
2018-01-20T00:58:39.662Z,134.5
2018-01-20T00:59:40.378Z,127.0
2018-01-20T01:00:41.111Z,131.7
2018-01-20T01:01:41.937Z,130.5
2018-01-20T01:02:42.706Z,135.9
2018-01-20T01:03:43.526Z,135.8
2018-01-20T01:04:44.270Z,148.3
2018-01-20T01:05:45.033Z,135.2
2018-01-20T01:06:45.852Z,149.2
2018-01-20T01:07:47.621Z,144.6
2018-01-20T01:08:49.867Z,138.1
2018-01-20T01:09:52.004Z,151.6
2018-01-20T01:10:53.966Z,139.2
2018-01-20T01:11:56.048Z,146.1
2018-01-20T01:12:58.098Z,152.1
2018-01-20T01:14:00.805Z,158.9
2018-01-20T01:15:02.616Z,152.7
2018-01-20T01:16:04.788Z,136.2
2018-01-20T01:17:06.887Z,149.2
2018-01-20T01:18:08.997Z,156.1
2018-01-20T01:19:11.578Z,142.4
2018-01-20T01:20:13.670Z,150.6
2018-01-20T01:21:15.777Z,143.5
2018-01-20T01:22:17.796Z,162.1
2018-01-20T01:23:19.952Z,159.3
2018-01-20T01:24:22.527Z,153.6
2018-01-20T01:25:24.685Z,150.7
2018-01-20T01:26:26.778Z,169.1
2018-01-20T01:27:28.856Z,148.1
2018-01-20T01:28:30.981Z,152.5
2018-01-20T01:29:33.441Z,165.6
2018-01-20T01:30:35.512Z,165.4
2018-01-20T01:31:37.663Z,160.8
2018-01-20T01:32:39.793Z,160.8
2018-01-20T01:33:41.816Z,149.0
2018-01-20T01:34:44.402Z,146.9
2018-01-20T01:35:46.278Z,146.1
2018-01-20T01:36:48.340Z,150.8
2018-01-20T01:37:50.950Z,174.7
2018-01-20T01:38:53.062Z,155.3
2018-01-20T01:39:55.142Z,149.2
2018-01-20T01:40:57.253Z,151.9
2018-01-20T01:41:59.333Z,150.0
2018-01-20T01:43:01.947Z,142.3
2018-01-20T01:44:03.839Z,150.9
2018-01-20T01:45:05.911Z,138.4
2018-01-20T01:46:07.993Z,135.8
2018-01-20T01:47:10.110Z,142.8
2018-01-20T01:48:12.259Z,139.7
2018-01-20T01:49:14.369Z,138.3
2018-01-20T01:50:16.918Z,139.0
2018-01-20T01:51:18.854Z,141.3
2018-01-20T01:52:21.002Z,142.3
2018-01-20T01:53:23.057Z,138.5
2018-01-20T01:54:24.294Z,141.3
2018-01-20T01:55:25.864Z,130.0
2018-01-20T01:56:27.138Z,142.3
2018-01-20T01:57:28.402Z,140.6
2018-01-20T01:58:29.368Z,135.3
2018-01-20T01:59:30.137Z,128.2
2018-01-20T02:00:30.858Z,140.9
2018-01-20T02:01:31.572Z,142.4
2018-01-20T02:02:32.308Z,134.0
2018-01-20T02:03:33.039Z,128.4
2018-01-20T02:04:33.817Z,126.8
2018-01-20T02:05:34.534Z,126.6
2018-01-20T02:06:35.254Z,133.1
2018-01-20T02:07:36.043Z,125.7
2018-01-20T02:08:36.758Z,120.8
2018-01-20T02:09:37.467Z,123.8
2018-01-20T02:10:38.192Z,123.0
2018-01-20T02:11:38.995Z,130.0
2018-01-20T02:12:39.782Z,121.6
2018-01-20T02:13:40.504Z,120.0
2018-01-20T02:14:41.538Z,119.0
2018-01-20T02:15:42.258Z,120.1
2018-01-20T02:16:43.064Z,127.5
2018-01-20T02:17:43.807Z,119.7
2018-01-20T02:18:44.529Z,126.7
2018-01-20T02:19:45.306Z,126.8
2018-01-20T02:20:46.033Z,126.2
2018-01-20T02:21:46.752Z,127.9
2018-01-20T02:22:47.488Z,126.0
2018-01-20T02:23:48.209Z,128.6
2018-01-20T02:24:48.938Z,124.3
2018-01-20T02:25:49.677Z,122.3
2018-01-20T02:26:50.408Z,120.1
2018-01-20T02:27:51.127Z,112.9
2018-01-20T02:28:51.847Z,127.6
2018-01-20T02:29:52.888Z,134.3
2018-01-20T02:30:53.609Z,123.4
2018-01-20T02:31:54.339Z,127.1
2018-01-20T02:32:55.056Z,116.4
2018-01-20T02:33:55.788Z,122.2
2018-01-20T02:34:56.568Z,113.6
2018-01-20T02:35:57.357Z,115.0
2018-01-20T02:36:58.140Z,120.8
2018-01-20T02:37:58.869Z,116.9
2018-01-20T02:38:59.595Z,118.7
2018-01-20T02:40:00.424Z,117.3
2018-01-20T02:41:01.138Z,105.8
2018-01-20T02:42:01.870Z,106.6
2018-01-20T02:43:02.585Z,111.2
2018-01-20T02:44:03.462Z,116.0
2018-01-20T02:45:04.379Z,113.7
2018-01-20T02:46:05.113Z,124.3
2018-01-20T02:47:05.892Z,114.8
2018-01-20T02:48:06.637Z,121.3
2018-01-20T02:49:07.361Z,120.1
2018-01-20T02:50:08.094Z,118.8
2018-01-20T02:51:09.121Z,123.4
2018-01-20T02:52:09.847Z,108.8
2018-01-20T02:53:10.579Z,122.2
2018-01-20T02:54:11.363Z,118.5
2018-01-20T02:55:12.103Z,120.4
2018-01-20T02:56:12.834Z,120.7
2018-01-20T02:57:13.579Z,113.3
2018-01-20T02:58:14.374Z,118.2
2018-01-20T02:59:15.097Z,125.3
2018-01-20T03:00:15.826Z,119.5
2018-01-20T03:01:16.562Z,111.6
2018-01-20T03:02:17.274Z,112.7
2018-01-20T03:03:18.048Z,113.0
2018-01-20T03:04:18.778Z,120.0
2018-01-20T03:05:19.493Z,114.2
2018-01-20T03:06:20.224Z,114.3
2018-01-20T03:07:20.947Z,118.2
2018-01-20T03:08:21.680Z,126.6
2018-01-20T03:09:22.484Z,123.3
2018-01-20T03:10:23.300Z,110.0
2018-01-20T03:11:24.074Z,115.0
2018-01-20T03:12:24.847Z,117.8
2018-01-20T03:13:25.571Z,124.7
2018-01-20T03:14:26.288Z,122.2
2018-01-20T03:15:27.003Z,114.4
2018-01-20T03:16:27.729Z,119.5
2018-01-20T03:17:28.446Z,116.0
2018-01-20T03:18:29.242Z,107.6
2018-01-20T03:19:29.969Z,111.6
2018-01-20T03:20:30.703Z,109.8
2018-01-20T03:21:31.443Z,125.5
2018-01-20T03:22:32.224Z,112.5
2018-01-20T03:23:32.947Z,114.7
2018-01-20T03:24:33.734Z,112.5
2018-01-20T03:25:34.538Z,113.7
2018-01-20T03:26:35.266Z,113.5
2018-01-20T03:27:35.983Z,117.6
2018-01-20T03:28:36.767Z,113.5
2018-01-20T03:29:37.483Z,107.2
2018-01-20T03:30:38.204Z,104.2
2018-01-20T03:31:38.929Z,111.5
2018-01-20T03:32:39.644Z,103.1
2018-01-20T03:33:40.458Z,100.9
2018-01-20T03:34:41.268Z,101.6
2018-01-20T03:35:41.999Z,96.8
2018-01-20T03:36:42.795Z,96.0
2018-01-20T03:37:43.601Z,96.8
2018-01-20T03:38:44.313Z,86.9
2018-01-20T03:39:45.092Z,87.5
2018-01-20T03:40:45.812Z,92.7
2018-01-20T03:41:46.583Z,77.7
2018-01-20T03:42:47.309Z,84.8
2018-01-20T03:43:48.035Z,83.4
2018-01-20T03:44:48.898Z,77.9
2018-01-20T03:45:49.632Z,73.1
2018-01-20T03:46:50.422Z,75.4
2018-01-20T03:47:51.158Z,76.3
2018-01-20T03:48:51.880Z,74.0
2018-01-20T03:49:52.668Z,80.2
2018-01-20T03:50:53.383Z,69.6
2018-01-20T03:51:54.104Z,65.8
2018-01-20T03:52:54.817Z,68.0
2018-01-20T03:53:55.585Z,60.3
2018-01-20T03:54:56.342Z,71.7
2018-01-20T03:55:57.078Z,58.9
2018-01-20T03:56:57.881Z,70.2
2018-01-20T03:57:58.604Z,67.0
2018-01-20T03:58:59.341Z,65.7
2018-01-20T04:00:00.131Z,64.3
2018-01-20T04:01:00.910Z,56.5
2018-01-20T04:02:01.631Z,58.2
2018-01-20T04:03:02.390Z,60.8
2018-01-20T04:04:03.200Z,59.5
2018-01-20T04:05:03.989Z,57.4
2018-01-20T04:06:04.718Z,57.0
2018-01-20T04:07:05.448Z,60.7
2018-01-20T04:08:06.168Z,59.9
2018-01-20T04:09:06.961Z,59.7
2018-01-20T04:10:07.691Z,57.9
2018-01-20T04:11:08.504Z,56.6
2018-01-20T04:12:09.197Z,57.8
2018-01-20T04:13:09.924Z,57.3
2018-01-20T04:14:10.637Z,54.9
2018-01-20T04:15:11.367Z,61.9
2018-01-20T04:16:12.082Z,54.1
2018-01-20T04:17:13.124Z,62.5
2018-01-20T04:18:13.850Z,52.9
2018-01-20T04:19:14.570Z,54.4
2018-01-20T04:20:15.308Z,56.5
2018-01-20T04:21:16.077Z,60.0
2018-01-20T04:22:16.862Z,59.2
2018-01-20T04:23:17.674Z,57.4
2018-01-20T04:24:18.408Z,59.1
2018-01-20T04:25:19.099Z,60.0
2018-01-20T04:26:19.837Z,61.8
2018-01-20T04:27:20.558Z,55.4
2018-01-20T04:28:21.321Z,64.4
2018-01-20T04:29:22.059Z,63.0
2018-01-20T04:30:22.842Z,59.2
2018-01-20T04:31:23.565Z,58.6
2018-01-20T04:32:24.355Z,62.9
2018-01-20T04:33:25.209Z,62.5
2018-01-20T04:34:25.937Z,64.6
2018-01-20T04:35:26.664Z,71.2
2018-01-20T04:36:27.388Z,72.1
2018-01-20T04:37:28.097Z,68.5
2018-01-20T04:38:29.128Z,79.4
2018-01-20T04:39:29.855Z,72.8
2018-01-20T04:40:30.585Z,71.1
2018-01-20T04:41:31.304Z,84.3
2018-01-20T04:42:32.043Z,84.8
2018-01-20T04:43:33.053Z,77.4
2018-01-20T04:44:33.772Z,92.5
2018-01-20T04:45:34.498Z,91.1
2018-01-20T04:46:35.214Z,95.0
2018-01-20T04:47:35.957Z,101.9
2018-01-20T04:48:36.730Z,103.7
2018-01-20T04:49:37.466Z,95.3
2018-01-20T04:50:38.195Z,104.5
2018-01-20T04:51:38.922Z,107.5
2018-01-20T04:52:39.651Z,102.4
2018-01-20T04:53:40.380Z,104.1
2018-01-20T04:54:41.108Z,104.1
2018-01-20T04:55:41.835Z,96.9
2018-01-20T04:56:42.554Z,101.6
2018-01-20T04:57:43.349Z,96.9
2018-01-20T04:58:44.190Z,93.1
2018-01-20T04:59:44.926Z,92.3
2018-01-20T05:00:45.634Z,92.9
2018-01-20T05:01:46.378Z,96.9
2018-01-20T05:02:47.108Z,92.6
2018-01-20T05:03:47.892Z,95.4
2018-01-20T05:04:48.685Z,92.2
2018-01-20T05:05:49.481Z,93.3
2018-01-20T05:06:50.275Z,93.9
2018-01-20T05:07:50.985Z,91.4
2018-01-20T05:08:51.784Z,98.6
2018-01-20T05:09:52.511Z,98.4
2018-01-20T05:10:53.295Z,101.5
2018-01-20T05:11:54.091Z,99.4
2018-01-20T05:12:54.820Z,90.5
2018-01-20T05:13:55.599Z,100.4
2018-01-20T05:14:56.318Z,102.1
2018-01-20T05:15:57.068Z,99.0
2018-01-20T05:16:57.798Z,98.4
2018-01-20T05:17:58.530Z,95.5
2018-01-20T05:18:59.264Z,91.7
2018-01-20T05:20:00.062Z,96.7
2018-01-20T05:21:00.833Z,101.6
2018-01-20T05:22:01.545Z,90.8
2018-01-20T05:23:02.279Z,90.4
2018-01-20T05:24:03.011Z,89.5
2018-01-20T05:25:03.926Z,86.6
2018-01-20T05:26:04.660Z,88.2
2018-01-20T05:27:05.454Z,94.3
2018-01-20T05:28:06.189Z,89.5
2018-01-20T05:29:06.912Z,87.3
2018-01-20T05:30:08.487Z,93.2
2018-01-20T05:31:09.221Z,89.9
2018-01-20T05:32:09.947Z,88.5
2018-01-20T05:33:10.682Z,95.7
2018-01-20T05:34:11.478Z,85.9
2018-01-20T05:35:12.260Z,80.8
2018-01-20T05:36:12.992Z,82.8
2018-01-20T05:37:13.709Z,84.3
2018-01-20T05:38:14.501Z,78.8
2018-01-20T05:39:15.299Z,81.2
2018-01-20T05:40:16.013Z,79.1
2018-01-20T05:41:16.789Z,78.4
2018-01-20T05:42:17.514Z,77.5
2018-01-20T05:43:18.244Z,80.5
2018-01-20T05:44:18.961Z,80.9
2018-01-20T05:45:19.683Z,71.1
2018-01-20T05:46:20.711Z,77.6
2018-01-20T05:47:21.439Z,74.2
2018-01-20T05:48:22.228Z,73.5
2018-01-20T05:49:22.944Z,74.1
2018-01-20T05:50:23.661Z,64.9
2018-01-20T05:51:24.480Z,61.2
2018-01-20T05:52:25.244Z,66.9
2018-01-20T05:53:26.054Z,65.9
2018-01-20T05:54:26.776Z,67.7
2018-01-20T05:55:27.522Z,63.3
2018-01-20T05:56:28.304Z,58.1
2018-01-20T05:57:29.027Z,61.5
2018-01-20T05:58:29.827Z,63.4
2018-01-20T05:59:30.543Z,62.6
2018-01-20T06:00:31.267Z,58.2
2018-01-20T06:01:31.990Z,58.9
2018-01-20T06:02:32.748Z,56.5
2018-01-20T06:03:33.479Z,64.0
2018-01-20T06:04:34.198Z,60.3
2018-01-20T06:05:34.919Z,57.4
2018-01-20T06:06:35.633Z,52.1
2018-01-20T06:07:36.656Z,53.0
2018-01-20T06:08:37.370Z,53.7
2018-01-20T06:09:38.088Z,55.3
2018-01-20T06:10:38.809Z,57.0
2018-01-20T06:11:39.545Z,52.2
2018-01-20T06:12:40.319Z,50.7
2018-01-20T06:13:41.038Z,58.0
2018-01-20T06:14:41.757Z,55.2
2018-01-20T06:15:42.494Z,60.9
2018-01-20T06:16:43.303Z,51.7
2018-01-20T06:17:43.969Z,53.3
2018-01-20T06:18:44.736Z,54.7
2018-01-20T06:19:45.439Z,52.2
2018-01-20T06:20:46.219Z,56.9
2018-01-20T06:21:46.935Z,51.8
2018-01-20T06:22:47.731Z,50.7
2018-01-20T06:23:48.532Z,50.5
2018-01-20T06:24:49.322Z,52.3
2018-01-20T06:25:50.038Z,55.1
2018-01-20T06:26:50.813Z,58.7
2018-01-20T06:27:51.618Z,59.6
2018-01-20T06:28:52.344Z,58.6
2018-01-20T06:29:53.102Z,52.4
2018-01-20T06:30:53.820Z,56.0
2018-01-20T06:31:54.634Z,52.4
2018-01-20T06:32:55.412Z,54.3
2018-01-20T06:33:56.199Z,59.4
2018-01-20T06:34:57.227Z,53.8
2018-01-20T06:35:57.942Z,52.4
2018-01-20T06:36:58.752Z,57.3
2018-01-20T06:37:59.535Z,53.3
2018-01-20T06:39:00.329Z,58.8
2018-01-20T06:40:01.109Z,52.7
2018-01-20T06:41:01.928Z,51.6
2018-01-20T06:42:02.669Z,47.1
2018-01-20T06:43:03.386Z,54.7
2018-01-20T06:44:04.119Z,56.1
2018-01-20T06:45:04.885Z,52.2
2018-01-20T06:46:05.606Z,50.9
2018-01-20T06:47:06.323Z,53.5
2018-01-20T06:48:07.072Z,54.2
2018-01-20T06:49:07.809Z,54.2
2018-01-20T06:50:08.525Z,50.1
2018-01-20T06:51:09.269Z,47.6
2018-01-20T06:52:10.378Z,44.1
2018-01-20T06:53:11.169Z,47.6
2018-01-20T06:54:11.989Z,54.0
2018-01-20T06:55:12.709Z,50.7
2018-01-20T06:56:13.423Z,47.5
2018-01-20T06:57:14.199Z,49.9
2018-01-20T06:58:14.938Z,50.3
2018-01-20T06:59:15.670Z,50.3
2018-01-20T07:00:16.398Z,48.0
2018-01-20T07:01:17.141Z,55.1
2018-01-20T07:02:17.909Z,54.1
2018-01-20T07:03:18.633Z,48.2
2018-01-20T07:04:19.394Z,50.7
2018-01-20T07:05:20.180Z,53.9
2018-01-20T07:06:20.905Z,48.0
2018-01-20T07:07:21.703Z,52.0
2018-01-20T07:08:22.491Z,50.7
2018-01-20T07:09:23.204Z,49.3
2018-01-20T07:10:23.927Z,58.2
2018-01-20T07:11:24.658Z,52.9
2018-01-20T07:12:25.382Z,48.7
2018-01-20T07:13:26.119Z,50.2
2018-01-20T07:14:26.838Z,53.7
2018-01-20T07:15:27.564Z,48.3
2018-01-20T07:16:28.314Z,52.6
2018-01-20T07:17:29.333Z,47.2
2018-01-20T07:18:30.046Z,56.1
2018-01-20T07:19:30.773Z,51.6
2018-01-20T07:20:31.474Z,62.5
2018-01-20T07:21:32.199Z,52.4
2018-01-20T07:22:33.043Z,50.2
2018-01-20T07:23:33.778Z,52.1
2018-01-20T07:24:34.558Z,56.4
2018-01-20T07:25:35.288Z,56.0
2018-01-20T07:26:36.006Z,50.9
2018-01-20T07:27:36.716Z,53.9
2018-01-20T07:28:37.448Z,49.0
2018-01-20T07:29:38.227Z,55.1
2018-01-20T07:30:38.953Z,56.1
2018-01-20T07:31:39.748Z,55.1
2018-01-20T07:32:40.503Z,59.4
2018-01-20T07:33:41.224Z,59.4
2018-01-20T07:34:42.274Z,52.5
2018-01-20T07:35:42.993Z,61.6
2018-01-20T07:36:43.722Z,50.8
2018-01-20T07:37:44.448Z,54.7
2018-01-20T07:38:45.177Z,55.4
2018-01-20T07:39:46.192Z,56.1
2018-01-20T07:40:46.926Z,64.6
2018-01-20T07:41:47.728Z,54.9
2018-01-20T07:42:48.546Z,55.5
2018-01-20T07:43:49.282Z,56.8
2018-01-20T07:44:50.055Z,54.9
2018-01-20T07:45:50.779Z,53.1
2018-01-20T07:46:51.503Z,53.3
2018-01-20T07:47:52.238Z,56.1
2018-01-20T07:48:52.947Z,54.2
2018-01-20T07:49:53.713Z,58.5
2018-01-20T07:50:54.454Z,58.7
2018-01-20T07:51:55.183Z,56.7
2018-01-20T07:52:55.910Z,49.9
2018-01-20T07:53:56.640Z,57.2
2018-01-20T07:54:57.364Z,47.0
2018-01-20T07:55:58.151Z,53.7
2018-01-20T07:56:58.868Z,56.0
2018-01-20T07:57:59.590Z,51.5
2018-01-20T07:59:00.317Z,55.9
2018-01-20T08:00:01.043Z,54.1
2018-01-20T08:01:02.078Z,48.9
2018-01-20T08:02:02.807Z,53.9
2018-01-20T08:03:03.535Z,49.8
2018-01-20T08:04:04.254Z,54.2
2018-01-20T08:05:04.979Z,50.4
2018-01-20T08:06:05.769Z,47.9
2018-01-20T08:07:06.492Z,45.3
2018-01-20T08:08:07.328Z,47.7
2018-01-20T08:09:08.123Z,52.0
2018-01-20T08:10:08.874Z,46.9
2018-01-20T08:11:09.645Z,53.6
2018-01-20T08:12:10.372Z,48.2
2018-01-20T08:13:11.152Z,48.2
2018-01-20T08:14:11.864Z,52.2
2018-01-20T08:15:12.592Z,51.3
2018-01-20T08:16:13.308Z,46.0
2018-01-20T08:17:14.052Z,48.7
2018-01-20T08:18:14.771Z,48.9
2018-01-20T08:19:15.498Z,48.2
2018-01-20T08:20:16.226Z,49.1
2018-01-20T08:21:16.950Z,55.6
2018-01-20T08:22:17.666Z,49.6
2018-01-20T08:23:18.397Z,47.4
2018-01-20T08:24:19.098Z,43.0
2018-01-20T08:25:19.955Z,48.3
2018-01-20T08:26:20.674Z,47.0
2018-01-20T08:27:21.466Z,51.7
2018-01-20T08:28:22.275Z,52.1
2018-01-20T08:29:23.093Z,51.6
2018-01-20T08:30:23.844Z,45.1
2018-01-20T08:31:24.572Z,45.2
2018-01-20T08:32:25.304Z,46.7
2018-01-20T08:33:26.026Z,48.2
2018-01-20T08:34:26.757Z,50.3
2018-01-20T08:35:27.494Z,47.8
2018-01-20T08:36:28.227Z,49.4
2018-01-20T08:37:28.958Z,47.8
2018-01-20T08:38:29.990Z,52.7
2018-01-20T08:39:30.704Z,55.3
2018-01-20T08:40:31.431Z,51.3
2018-01-20T08:41:32.168Z,52.2
2018-01-20T08:42:32.963Z,55.3
2018-01-20T08:43:33.744Z,59.1
2018-01-20T08:44:34.463Z,48.8
2018-01-20T08:45:35.195Z,51.6
2018-01-20T08:46:35.925Z,48.6
2018-01-20T08:47:36.654Z,51.5
2018-01-20T08:48:37.375Z,54.4
2018-01-20T08:49:38.121Z,52.1
2018-01-20T08:50:38.904Z,51.8
2018-01-20T08:51:39.638Z,52.2
2018-01-20T08:52:40.368Z,56.7
2018-01-20T08:53:41.131Z,51.8
2018-01-20T08:54:41.910Z,56.8
2018-01-20T08:55:42.643Z,52.4
2018-01-20T08:56:43.384Z,53.3
2018-01-20T08:57:44.118Z,58.7
2018-01-20T08:58:44.915Z,51.1
2018-01-20T08:59:45.694Z,52.3
2018-01-20T09:00:46.417Z,50.7
2018-01-20T09:01:47.137Z,58.5
2018-01-20T09:02:47.878Z,55.7
2018-01-20T09:03:48.691Z,47.7
2018-01-20T09:04:49.493Z,46.1
2018-01-20T09:05:50.218Z,51.3
2018-01-20T09:06:50.954Z,58.0
2018-01-20T09:07:51.677Z,46.7
2018-01-20T09:08:52.473Z,48.9
2018-01-20T09:09:53.197Z,48.7
2018-01-20T09:10:53.938Z,47.6
2018-01-20T09:11:54.689Z,48.4
2018-01-20T09:12:55.418Z,48.7
2018-01-20T09:13:56.268Z,47.3
2018-01-20T09:14:57.023Z,52.6
2018-01-20T09:15:57.779Z,45.4
2018-01-20T09:16:58.557Z,50.0
2018-01-20T09:17:59.284Z,48.7
2018-01-20T09:19:00.027Z,49.9
2018-01-20T09:20:00.759Z,49.0
2018-01-20T09:21:01.484Z,49.3
2018-01-20T09:22:02.285Z,47.7
2018-01-20T09:23:03.004Z,48.5
2018-01-20T09:24:03.750Z,50.2
2018-01-20T09:25:04.435Z,55.0
2018-01-20T09:26:05.167Z,51.3
2018-01-20T09:27:05.902Z,49.3
2018-01-20T09:28:06.644Z,45.8
2018-01-20T09:29:07.449Z,44.8
2018-01-20T09:30:08.258Z,50.1
2018-01-20T09:31:08.973Z,52.2
2018-01-20T09:32:09.699Z,50.6
2018-01-20T09:33:10.447Z,47.3
2018-01-20T09:34:11.203Z,47.6
2018-01-20T09:35:11.948Z,48.4
2018-01-20T09:36:12.662Z,62.8
2018-01-20T09:37:13.395Z,51.0
2018-01-20T09:38:14.102Z,40.9
2018-01-20T09:39:14.838Z,42.5
2018-01-20T09:40:15.589Z,40.3
2018-01-20T09:41:16.402Z,45.9
2018-01-20T09:42:17.212Z,42.8
2018-01-20T09:43:17.944Z,41.9
2018-01-20T09:44:18.729Z,41.6
2018-01-20T09:45:19.463Z,43.2
2018-01-20T09:46:20.205Z,49.1
2018-01-20T09:47:21.019Z,36.6
2018-01-20T09:48:21.753Z,40.2
2018-01-20T09:49:22.531Z,38.4
2018-01-20T09:50:23.257Z,41.0
2018-01-20T09:51:24.024Z,33.0
2018-01-20T09:52:24.777Z,37.8
2018-01-20T09:53:25.559Z,39.8
2018-01-20T09:54:26.349Z,42.7
2018-01-20T09:55:27.139Z,32.0
2018-01-20T09:56:27.846Z,38.9
2018-01-20T09:57:28.581Z,34.4
2018-01-20T09:58:29.388Z,33.1
2018-01-20T09:59:30.165Z,31.5
2018-01-20T10:00:30.977Z,36.2
2018-01-20T10:01:31.703Z,37.4
2018-01-20T10:02:32.443Z,32.9
2018-01-20T10:03:33.170Z,36.5
2018-01-20T10:04:33.904Z,27.5
2018-01-20T10:05:34.624Z,34.1
2018-01-20T10:06:35.648Z,31.4
2018-01-20T10:07:36.364Z,38.5
2018-01-20T10:08:37.088Z,29.4
2018-01-20T10:09:37.824Z,34.7
2018-01-20T10:10:38.553Z,38.4
2018-01-20T10:11:39.288Z,36.5
2018-01-20T10:12:40.030Z,30.3
2018-01-20T10:13:40.835Z,36.9
2018-01-20T10:14:41.598Z,32.5
2018-01-20T10:15:42.325Z,32.5
2018-01-20T10:16:43.043Z,36.7
2018-01-20T10:17:43.779Z,35.1
2018-01-20T10:18:44.528Z,32.6
2018-01-20T10:19:45.293Z,30.5
2018-01-20T10:20:46.074Z,30.3
2018-01-20T10:21:46.809Z,37.4
2018-01-20T10:22:47.535Z,33.3
2018-01-20T10:23:48.267Z,33.1
2018-01-20T10:24:49.008Z,31.5
2018-01-20T10:25:49.724Z,33.8
2018-01-20T10:26:50.514Z,33.5
2018-01-20T10:27:51.253Z,32.6
2018-01-20T10:28:52.039Z,34.4
2018-01-20T10:29:52.768Z,31.5
2018-01-20T10:30:53.513Z,31.6
2018-01-20T10:31:54.593Z,29.6
2018-01-20T10:32:55.347Z,24.4
2018-01-20T10:33:56.072Z,29.7
2018-01-20T10:34:56.824Z,33.5
2018-01-20T10:35:57.598Z,27.7
2018-01-20T10:36:58.314Z,25.1
2018-01-20T10:37:59.059Z,24.1
2018-01-20T10:38:59.778Z,21.2
2018-01-20T10:40:00.504Z,20.3
2018-01-20T10:41:01.234Z,20.7
2018-01-20T10:42:02.280Z,18.8
2018-01-20T10:43:03.006Z,17.9
2018-01-20T10:44:03.745Z,25.8
2018-01-20T10:45:04.533Z,23.1
2018-01-20T10:46:05.263Z,16.5
2018-01-20T10:47:05.998Z,19.4
2018-01-20T10:48:06.807Z,17.7
2018-01-20T10:49:07.539Z,21.6
2018-01-20T10:50:08.362Z,26.3
2018-01-20T10:51:09.100Z,30.8
2018-01-20T10:52:09.809Z,26.6
2018-01-20T10:53:10.583Z,32.3
2018-01-20T10:54:11.313Z,18.4
2018-01-20T10:55:12.049Z,26.3
2018-01-20T10:56:12.779Z,29.1
2018-01-20T10:57:13.506Z,24.4
2018-01-20T10:58:14.537Z,24.3
2018-01-20T10:59:15.259Z,32.2
2018-01-20T11:00:15.983Z,24.5
2018-01-20T11:01:16.707Z,27.5
2018-01-20T11:02:17.426Z,27.9
2018-01-20T11:03:18.224Z,20.6
2018-01-20T11:04:18.988Z,24.5
2018-01-20T11:05:19.719Z,18.7
2018-01-20T11:06:20.450Z,24.2
2018-01-20T11:07:21.175Z,23.0
2018-01-20T11:08:21.982Z,21.6
2018-01-20T11:09:22.703Z,23.1
2018-01-20T11:10:23.456Z,23.5
2018-01-20T11:11:24.230Z,24.2
2018-01-20T11:12:24.967Z,21.4
2018-01-20T11:13:25.693Z,18.3
2018-01-20T11:14:26.431Z,19.0
2018-01-20T11:15:27.230Z,23.3
2018-01-20T11:16:27.963Z,17.2
2018-01-20T11:17:28.704Z,22.2
2018-01-20T11:18:29.435Z,15.3
2018-01-20T11:19:30.187Z,14.7
2018-01-20T11:20:30.906Z,17.9
2018-01-20T11:21:31.638Z,22.3
2018-01-20T11:22:32.370Z,18.2
2018-01-20T11:23:33.110Z,18.6
2018-01-20T11:24:33.838Z,19.2
2018-01-20T11:25:34.560Z,16.0
2018-01-20T11:26:35.295Z,19.0
2018-01-20T11:27:36.016Z,23.4
2018-01-20T11:28:36.783Z,21.4
2018-01-20T11:29:37.535Z,23.1
2018-01-20T11:30:38.265Z,20.9
2018-01-20T11:31:38.999Z,19.6
2018-01-20T11:32:39.804Z,25.3
2018-01-20T11:33:40.529Z,16.7
2018-01-20T11:34:41.244Z,17.3
2018-01-20T11:35:41.988Z,19.7
2018-01-20T11:36:42.849Z,20.8
2018-01-20T11:37:43.589Z,21.1
2018-01-20T11:38:44.318Z,26.2
2018-01-20T11:39:45.034Z,26.7
2018-01-20T11:40:45.765Z,21.3
2018-01-20T11:41:46.490Z,22.1
2018-01-20T11:42:47.283Z,19.0
2018-01-20T11:43:48.013Z,19.3
2018-01-20T11:44:48.857Z,16.9
2018-01-20T11:45:49.659Z,21.1
2018-01-20T11:46:50.454Z,18.5
2018-01-20T11:47:51.179Z,20.2
2018-01-20T11:48:51.901Z,21.6
2018-01-20T11:49:52.700Z,16.6
2018-01-20T11:50:53.427Z,25.1
2018-01-20T11:51:54.153Z,19.3
2018-01-20T11:52:54.896Z,15.2
2018-01-20T11:53:55.642Z,14.7
2018-01-20T11:54:56.427Z,14.8
2018-01-20T11:55:57.159Z,19.7
2018-01-20T11:56:57.889Z,16.5
2018-01-20T11:57:58.593Z,28.2
2018-01-20T11:58:59.313Z,22.6
2018-01-20T12:00:00.049Z,21.3
2018-01-20T12:01:01.078Z,16.8
2018-01-20T12:02:01.816Z,19.7
2018-01-20T12:03:02.638Z,23.5
2018-01-20T12:04:03.341Z,16.9
2018-01-20T12:05:04.135Z,20.8
2018-01-20T12:06:04.909Z,18.7
2018-01-20T12:07:05.729Z,21.4
2018-01-20T12:08:06.706Z,18.9
2018-01-20T12:09:07.541Z,19.6
2018-01-20T12:10:08.276Z,17.9
2018-01-20T12:11:09.571Z,23.4
2018-01-20T12:12:10.473Z,13.7
2018-01-20T12:13:11.200Z,14.8
2018-01-20T12:14:11.931Z,15.9
2018-01-20T12:15:12.659Z,14.4
2018-01-20T12:16:13.480Z,15.6
2018-01-20T12:17:14.253Z,14.4
2018-01-20T12:18:15.060Z,23.3
2018-01-20T12:19:15.879Z,18.5
2018-01-20T12:20:16.603Z,24.9
2018-01-20T12:21:17.638Z,13.3
2018-01-20T12:22:18.349Z,14.2
2018-01-20T12:23:19.073Z,16.9
2018-01-20T12:24:19.830Z,14.1
2018-01-20T12:25:20.648Z,21.1
2018-01-20T12:26:21.428Z,23.1
2018-01-20T12:27:22.164Z,18.3
2018-01-20T12:28:22.887Z,14.7
2018-01-20T12:29:23.626Z,13.5
2018-01-20T12:30:24.360Z,15.0
2018-01-20T12:31:25.219Z,11.9
2018-01-20T12:32:26.023Z,11.9
2018-01-20T12:33:26.766Z,16.2
2018-01-20T12:34:27.524Z,10.3
2018-01-20T12:35:28.257Z,11.3
2018-01-20T12:36:29.210Z,9.0
2018-01-20T12:37:29.998Z,13.7
2018-01-20T12:38:30.748Z,10.8
2018-01-20T12:39:31.428Z,17.4
2018-01-20T12:40:32.162Z,6.6
2018-01-20T12:41:32.988Z,10.1
2018-01-20T12:42:33.804Z,13.8
2018-01-20T12:43:34.569Z,9.7
2018-01-20T12:44:35.384Z,10.8
2018-01-20T12:45:36.129Z,11.8
2018-01-20T12:46:37.149Z,10.3
2018-01-20T12:47:37.978Z,7.5
2018-01-20T12:48:38.689Z,8.0
2018-01-20T12:49:39.412Z,11.4
2018-01-20T12:50:40.161Z,7.4
2018-01-20T12:51:42.595Z,12.0
2018-01-20T12:52:43.558Z,6.1
2018-01-20T12:53:44.963Z,11.8
2018-01-20T12:54:45.893Z,9.3
2018-01-20T12:55:46.594Z,10.6
2018-01-20T12:56:47.325Z,13.6
2018-01-20T12:57:48.065Z,8.3
2018-01-20T13:00:03.125Z,7.7
2018-01-20T13:01:03.922Z,5.9
2018-01-20T13:02:04.657Z,8.5
2018-01-20T13:03:05.392Z,12.6
2018-01-20T13:04:06.119Z,15.9
2018-01-20T13:05:06.870Z,11.2
2018-01-20T13:06:07.643Z,7.9
2018-01-20T13:07:08.763Z,13.4
2018-01-20T13:08:09.558Z,14.1
2018-01-20T13:09:10.370Z,8.0
2018-01-20T13:10:11.178Z,14.0
2018-01-20T13:11:11.910Z,11.9
2018-01-20T13:12:12.649Z,11.3
2018-01-20T13:13:13.458Z,11.3
2018-01-20T13:14:14.222Z,8.7
2018-01-20T13:15:14.956Z,9.4
2018-01-20T13:16:15.696Z,9.7
2018-01-20T13:17:17.489Z,9.5
2018-01-20T13:18:18.488Z,9.8
2018-01-20T13:19:19.217Z,8.9
2018-01-20T13:20:21.089Z,14.8
2018-01-20T13:21:22.573Z,6.6
2018-01-20T13:22:23.248Z,10.5
2018-01-20T13:23:23.978Z,8.8
2018-01-20T13:24:24.840Z,11.4